createdAt,value
2017-11-30T00:01:33.795Z,12.33
2017-11-30T00:04:01.463Z,13.60
2017-11-30T00:06:29.838Z,12.10
2017-11-30T00:08:57.473Z,14.10
2017-11-30T00:11:25.062Z,13.50
2017-11-30T00:13:53.442Z,13.60
2017-11-30T00:16:21.073Z,15.20
2017-11-30T00:18:48.678Z,15.43
2017-11-30T00:21:17.065Z,11.77
2017-11-30T00:23:44.667Z,13.80
2017-11-30T00:26:12.305Z,11.93
2017-11-30T00:28:39.914Z,14.23
2017-11-30T00:31:07.549Z,13.00
2017-11-30T00:33:35.178Z,12.20
2017-11-30T00:36:02.831Z,14.30
2017-11-30T00:38:30.437Z,14.00
2017-11-30T00:40:58.033Z,14.57
2017-11-30T00:43:31.997Z,14.13
2017-11-30T00:45:59.606Z,13.43
2017-11-30T00:48:28.005Z,14.33
2017-11-30T00:50:55.626Z,14.33
2017-11-30T00:53:23.218Z,12.77
2017-11-30T00:55:51.613Z,13.33
2017-11-30T00:58:19.226Z,13.07
2017-11-30T01:00:46.865Z,12.60
2017-11-30T01:03:14.465Z,14.10
2017-11-30T01:05:42.870Z,12.90
2017-11-30T01:08:10.479Z,15.40
2017-11-30T01:10:38.074Z,12.50
2017-11-30T01:13:05.728Z,12.50
2017-11-30T01:15:34.344Z,14.43
2017-11-30T01:18:02.020Z,11.47
2017-11-30T01:20:29.627Z,12.23
2017-11-30T01:22:57.262Z,12.27
2017-11-30T01:25:24.875Z,13.80
2017-11-30T01:27:52.527Z,12.10
2017-11-30T01:30:20.915Z,12.07
2017-11-30T01:32:48.525Z,12.40
2017-11-30T01:35:16.168Z,11.40
2017-11-30T01:37:43.771Z,12.13
2017-11-30T01:40:11.365Z,10.87
2017-11-30T01:42:39.017Z,12.70
2017-11-30T01:45:08.181Z,12.80
2017-11-30T01:47:36.603Z,13.90
2017-11-30T01:50:04.207Z,12.57
2017-11-30T01:52:31.810Z,13.50
2017-11-30T01:54:59.466Z,12.47
2017-11-30T01:57:27.843Z,12.83
2017-11-30T01:59:56.238Z,11.23
2017-11-30T02:02:23.855Z,12.43
2017-11-30T02:04:51.462Z,11.10
2017-11-30T02:07:19.081Z,11.43
2017-11-30T02:09:46.705Z,14.03
2017-11-30T02:12:14.335Z,12.60
2017-11-30T02:14:42.702Z,14.03
2017-11-30T02:17:11.122Z,14.53
2017-11-30T02:19:38.725Z,11.80
2017-11-30T02:22:06.359Z,13.70
2017-11-30T02:24:33.987Z,13.50
2017-11-30T02:27:01.585Z,10.53
2017-11-30T02:29:29.250Z,11.50
2017-11-30T02:31:56.898Z,13.30
2017-11-30T02:34:24.510Z,11.47
2017-11-30T02:36:52.909Z,11.00
2017-11-30T02:39:20.546Z,13.80
2017-11-30T02:41:48.973Z,14.17
2017-11-30T02:44:16.613Z,13.90
2017-11-30T02:46:44.282Z,12.50
2017-11-30T02:49:11.953Z,13.00
2017-11-30T02:51:39.566Z,12.57
2017-11-30T02:54:07.227Z,12.50
2017-11-30T02:56:34.848Z,13.20
2017-11-30T02:59:02.483Z,12.47
2017-11-30T03:01:30.122Z,12.27
2017-11-30T03:03:58.522Z,12.27
2017-11-30T03:06:26.167Z,11.77
2017-11-30T03:08:53.798Z,13.17
2017-11-30T03:11:21.438Z,14.13
2017-11-30T03:13:49.043Z,10.97
2017-11-30T03:16:17.470Z,11.83
2017-11-30T03:18:45.147Z,12.30
2017-11-30T03:21:12.770Z,16.20
2017-11-30T03:23:40.401Z,12.07
2017-11-30T03:26:08.013Z,17.37
2017-11-30T03:28:35.645Z,14.17
2017-11-30T03:31:03.292Z,13.00
2017-11-30T03:33:31.686Z,11.73
2017-11-30T03:35:59.294Z,13.73
2017-11-30T03:38:26.934Z,10.43
2017-11-30T03:40:54.571Z,14.67
2017-11-30T03:43:22.206Z,15.13
2017-11-30T03:45:49.834Z,11.70
2017-11-30T03:48:17.442Z,13.47
2017-11-30T03:50:45.094Z,9.77
2017-11-30T03:53:12.705Z,9.57
2017-11-30T03:55:40.315Z,13.87
2017-11-30T03:58:07.937Z,13.40
2017-11-30T04:00:35.539Z,14.87
2017-11-30T04:03:03.954Z,14.70
2017-11-30T04:05:31.547Z,13.97
2017-11-30T04:07:59.297Z,15.67
2017-11-30T04:10:26.924Z,15.17
2017-11-30T04:12:54.548Z,12.67
2017-11-30T04:15:22.199Z,14.97
2017-11-30T04:17:49.789Z,14.03
2017-11-30T04:20:18.169Z,15.03
2017-11-30T04:22:46.526Z,14.97
2017-11-30T04:25:14.534Z,13.70
2017-11-30T04:27:42.133Z,15.23
2017-11-30T04:30:09.742Z,14.30
2017-11-30T04:32:38.138Z,12.03
2017-11-30T04:35:05.736Z,12.87
2017-11-30T04:37:33.378Z,11.00
2017-11-30T04:40:00.997Z,14.40
2017-11-30T04:42:29.419Z,15.83
2017-11-30T04:44:57.031Z,14.50
2017-11-30T04:47:24.625Z,12.07
2017-11-30T04:49:52.254Z,10.83
2017-11-30T04:52:19.872Z,14.20
2017-11-30T04:54:47.499Z,12.33
2017-11-30T04:57:15.115Z,13.00
2017-11-30T04:59:42.766Z,13.07
2017-11-30T05:02:10.385Z,10.60
2017-11-30T05:04:37.979Z,13.20
2017-11-30T05:07:05.623Z,15.90
2017-11-30T05:09:33.239Z,13.63
2017-11-30T05:12:00.886Z,14.43
2017-11-30T05:14:28.498Z,12.23
2017-11-30T05:16:56.134Z,14.40
2017-11-30T05:19:24.489Z,10.13
2017-11-30T05:21:52.101Z,11.73
2017-11-30T05:24:19.729Z,15.47
2017-11-30T05:26:48.103Z,11.80
2017-11-30T05:29:15.732Z,10.60
2017-11-30T05:31:43.334Z,13.80
2017-11-30T05:34:11.742Z,13.80
2017-11-30T05:36:39.556Z,11.20
2017-11-30T05:39:07.201Z,12.90
2017-11-30T05:41:34.800Z,13.17
2017-11-30T05:44:03.207Z,14.60
2017-11-30T05:46:30.814Z,13.40
2017-11-30T05:48:59.181Z,12.03
2017-11-30T05:51:26.812Z,12.20
2017-11-30T05:53:54.409Z,11.43
2017-11-30T05:56:22.033Z,15.90
2017-11-30T05:58:49.641Z,15.47
2017-11-30T06:01:17.278Z,14.73
2017-11-30T06:03:44.874Z,14.60
2017-11-30T06:06:12.471Z,13.07
2017-11-30T06:08:40.113Z,12.83
2017-11-30T06:11:08.479Z,14.10
2017-11-30T06:13:36.871Z,13.50
2017-11-30T06:16:05.238Z,10.87
2017-11-30T06:18:33.603Z,10.40
2017-11-30T06:21:01.434Z,13.80
2017-11-30T06:23:29.032Z,10.87
2017-11-30T06:25:56.654Z,12.33
2017-11-30T06:28:24.253Z,12.07
2017-11-30T06:30:51.850Z,9.03
2017-11-30T06:33:19.476Z,12.67
2017-11-30T06:35:47.845Z,13.10
2017-11-30T06:38:15.490Z,10.03
2017-11-30T06:40:43.102Z,12.97
2017-11-30T06:43:10.752Z,10.73
2017-11-30T06:45:39.164Z,12.83
2017-11-30T06:48:06.795Z,12.37
2017-11-30T06:50:35.204Z,13.17
2017-11-30T06:53:02.878Z,13.90
2017-11-30T06:55:30.528Z,13.93
2017-11-30T06:57:58.138Z,11.80
2017-11-30T07:00:25.761Z,19.00
2017-11-30T07:02:53.391Z,16.80
2017-11-30T07:05:21.003Z,16.80
2017-11-30T07:07:48.617Z,17.93
2017-11-30T07:10:16.219Z,18.07
2017-11-30T07:12:43.838Z,18.70
2017-11-30T07:15:11.471Z,23.03
2017-11-30T07:17:39.851Z,16.07
2017-11-30T07:20:08.252Z,16.17
2017-11-30T07:22:36.635Z,16.33
2017-11-30T07:25:04.276Z,18.17
2017-11-30T07:27:32.675Z,15.70
2017-11-30T07:30:00.373Z,21.00
2017-11-30T07:32:27.983Z,17.63
2017-11-30T07:34:56.399Z,16.20
2017-11-30T07:37:24.038Z,16.10
2017-11-30T07:39:51.651Z,15.50
2017-11-30T07:42:19.323Z,15.83
2017-11-30T07:44:46.922Z,17.90
2017-11-30T07:47:14.558Z,22.00
2017-11-30T07:49:42.931Z,19.37
2017-11-30T07:52:10.554Z,19.77
2017-11-30T07:54:38.177Z,18.10
2017-11-30T07:57:05.810Z,19.20
2017-11-30T07:59:33.443Z,20.23
2017-11-30T08:02:01.041Z,16.27
2017-11-30T08:04:28.673Z,17.57
2017-11-30T08:06:56.268Z,18.70
2017-11-30T08:09:24.671Z,16.67
2017-11-30T08:11:52.271Z,19.40
2017-11-30T08:14:19.894Z,17.23
2017-11-30T08:16:47.533Z,18.97
2017-11-30T08:19:15.909Z,16.40
2017-11-30T08:21:44.313Z,21.03
2017-11-30T08:24:11.905Z,17.03
2017-11-30T08:26:39.574Z,18.83
2017-11-30T08:29:07.195Z,16.80
2017-11-30T08:31:34.869Z,16.43
2017-11-30T08:34:02.454Z,17.97
2017-11-30T08:36:30.102Z,15.77
2017-11-30T08:38:57.727Z,16.50
2017-11-30T08:41:26.152Z,17.13
2017-11-30T08:43:53.782Z,17.43
2017-11-30T08:46:21.401Z,16.40
2017-11-30T08:48:49.013Z,16.03
2017-11-30T08:51:16.642Z,16.20
2017-11-30T08:53:45.039Z,15.00
2017-11-30T08:56:12.695Z,15.60
2017-11-30T08:58:40.299Z,16.30
2017-11-30T09:01:07.932Z,13.73
2017-11-30T09:03:35.529Z,12.37
2017-11-30T09:06:03.132Z,14.70
2017-11-30T09:08:31.533Z,14.50
2017-11-30T09:10:59.153Z,16.47
2017-11-30T09:13:27.523Z,14.50
2017-11-30T09:15:55.895Z,15.20
2017-11-30T09:18:23.518Z,14.77
2017-11-30T09:20:51.110Z,11.60
2017-11-30T09:23:18.732Z,13.30
2017-11-30T09:25:46.335Z,15.03
2017-11-30T09:28:13.932Z,11.57
2017-11-30T09:30:42.326Z,11.60
2017-11-30T09:33:09.938Z,14.10
2017-11-30T09:35:39.073Z,12.00
2017-11-30T09:38:06.681Z,12.17
2017-11-30T09:40:34.335Z,12.60
2017-11-30T09:43:01.960Z,9.90
2017-11-30T09:45:29.551Z,12.53
2017-11-30T09:47:57.179Z,13.00
2017-11-30T09:50:24.885Z,10.93
2017-11-30T09:52:52.497Z,12.93
2017-11-30T09:55:20.883Z,11.13
2017-11-30T09:57:48.509Z,14.87
2017-11-30T10:00:16.134Z,11.47
2017-11-30T10:02:43.726Z,11.87
2017-11-30T10:05:11.349Z,10.73
2017-11-30T10:07:38.946Z,11.30
2017-11-30T10:10:06.613Z,10.97
2017-11-30T10:12:35.750Z,13.87
2017-11-30T10:15:03.368Z,10.37
2017-11-30T10:17:31.003Z,11.90
2017-11-30T10:19:58.600Z,14.30
2017-11-30T10:22:26.227Z,12.83
2017-11-30T10:24:53.834Z,14.23
2017-11-30T10:27:22.237Z,10.70
2017-11-30T10:29:49.870Z,13.57
2017-11-30T10:32:18.233Z,13.93
2017-11-30T10:34:46.624Z,14.00
2017-11-30T10:37:14.994Z,11.53
2017-11-30T10:39:43.397Z,10.50
2017-11-30T10:42:11.026Z,11.00
2017-11-30T10:44:38.657Z,12.43
2017-11-30T10:47:06.259Z,10.83
2017-11-30T10:49:34.633Z,10.97
2017-11-30T10:52:02.258Z,12.80
2017-11-30T10:54:29.876Z,12.97
2017-11-30T10:56:58.280Z,15.00
2017-11-30T10:59:25.880Z,10.17
2017-11-30T11:01:53.502Z,10.73
2017-11-30T11:04:21.109Z,12.33
2017-11-30T11:06:48.759Z,12.40
2017-11-30T11:09:16.370Z,11.73
2017-11-30T11:11:43.959Z,13.93
2017-11-30T11:14:11.583Z,12.87
2017-11-30T11:16:39.945Z,11.80
2017-11-30T11:19:07.577Z,12.17
2017-11-30T11:21:36.258Z,13.00
2017-11-30T11:24:03.902Z,13.20
2017-11-30T11:26:31.511Z,11.00
2017-11-30T11:28:59.874Z,10.90
2017-11-30T11:31:27.510Z,12.10
2017-11-30T11:33:55.118Z,9.60
2017-11-30T11:36:23.528Z,10.30
2017-11-30T11:38:51.115Z,8.50
2017-11-30T11:41:18.726Z,14.23
2017-11-30T11:43:47.113Z,10.60
2017-11-30T11:46:15.477Z,12.27
2017-11-30T11:48:43.909Z,11.60
2017-11-30T11:51:11.515Z,9.97
2017-11-30T11:53:39.915Z,9.93
2017-11-30T11:56:07.509Z,12.07
2017-11-30T11:58:35.110Z,11.40
2017-11-30T12:01:02.761Z,13.00
2017-11-30T12:03:30.384Z,13.73
2017-11-30T12:05:58.027Z,10.80
2017-11-30T12:08:25.659Z,13.37
2017-11-30T12:10:54.066Z,10.10
2017-11-30T12:13:21.677Z,10.80
2017-11-30T12:15:49.279Z,11.93
2017-11-30T12:18:16.906Z,11.67
2017-11-30T12:20:44.498Z,8.70
2017-11-30T12:23:12.878Z,9.70
2017-11-30T12:25:41.314Z,12.80
2017-11-30T12:28:10.454Z,17.03
2017-11-30T12:30:38.902Z,11.43
2017-11-30T12:33:06.545Z,14.40
2017-11-30T12:35:34.185Z,12.47
2017-11-30T12:38:01.809Z,14.57
2017-11-30T12:40:30.202Z,11.40
2017-11-30T12:42:57.797Z,11.67
2017-11-30T12:45:25.439Z,11.00
2017-11-30T12:47:53.041Z,13.50
2017-11-30T12:50:20.647Z,11.97
2017-11-30T12:52:48.271Z,10.00
2017-11-30T12:55:15.894Z,10.00
2017-11-30T12:57:43.561Z,8.90
2017-11-30T13:00:11.205Z,11.30
2017-11-30T13:02:38.814Z,11.13
2017-11-30T13:05:06.445Z,15.27
2017-11-30T13:07:34.064Z,11.90
2017-11-30T13:10:02.464Z,11.77
2017-11-30T13:12:30.073Z,12.77
2017-11-30T13:14:59.965Z,14.47
2017-11-30T13:17:27.765Z,11.20
2017-11-30T13:19:55.378Z,15.30
2017-11-30T13:22:23.065Z,10.47
2017-11-30T13:24:50.658Z,12.97
2017-11-30T13:27:19.017Z,11.80
2017-11-30T13:29:46.659Z,11.37
2017-11-30T13:32:14.362Z,12.53
2017-11-30T13:34:42.748Z,13.23
2017-11-30T13:37:11.116Z,12.17
2017-11-30T13:39:39.516Z,12.47
2017-11-30T13:42:07.119Z,12.83
2017-11-30T13:44:34.740Z,11.43
2017-11-30T13:47:02.365Z,10.20
2017-11-30T13:49:29.977Z,13.40
2017-11-30T13:51:57.612Z,14.70
2017-11-30T13:54:25.979Z,12.30
2017-11-30T13:56:54.336Z,14.03
2017-11-30T13:59:21.954Z,13.40
2017-11-30T14:01:49.556Z,12.70
2017-11-30T14:04:17.202Z,14.33
2017-11-30T14:06:44.823Z,11.67
2017-11-30T14:09:12.427Z,14.30
2017-11-30T14:11:40.104Z,10.87
2017-11-30T14:14:07.701Z,11.77
2017-11-30T14:16:35.322Z,14.67
2017-11-30T14:19:02.962Z,11.57
2017-11-30T14:21:30.619Z,12.17
2017-11-30T14:23:58.264Z,12.67
2017-11-30T14:26:25.909Z,14.60
2017-11-30T14:28:53.506Z,11.93
2017-11-30T14:31:21.101Z,13.67
2017-11-30T14:33:48.775Z,11.27
2017-11-30T14:36:17.137Z,15.50
2017-11-30T14:38:44.766Z,13.23
2017-11-30T14:41:12.361Z,14.43
2017-11-30T14:43:39.996Z,14.57
2017-11-30T14:46:07.596Z,12.37
2017-11-30T14:48:35.961Z,14.57
2017-11-30T14:51:05.105Z,12.90
2017-11-30T14:53:32.713Z,18.40
2017-11-30T14:56:00.356Z,15.07
2017-11-30T14:58:27.950Z,15.47
2017-11-30T15:00:56.376Z,15.80
2017-11-30T15:03:23.977Z,14.57
2017-11-30T15:05:51.577Z,15.53
2017-11-30T15:08:19.216Z,17.23
2017-11-30T15:10:47.614Z,13.10
2017-11-30T15:13:15.245Z,17.10
2017-11-30T15:15:43.641Z,16.50
2017-11-30T15:18:12.034Z,15.13
2017-11-30T15:20:39.627Z,16.27
2017-11-30T15:23:07.226Z,15.23
2017-11-30T15:25:35.626Z,14.67
2017-11-30T15:28:04.039Z,14.40
2017-11-30T15:30:32.520Z,12.97
2017-11-30T15:33:00.139Z,12.90
2017-11-30T15:35:28.527Z,13.03
2017-11-30T15:37:56.128Z,14.90
2017-11-30T15:40:23.751Z,15.73
2017-11-30T15:42:51.856Z,14.50
2017-11-30T15:45:19.534Z,16.20
2017-11-30T15:47:47.161Z,14.47
2017-11-30T15:50:14.756Z,15.00
2017-11-30T15:52:42.536Z,10.60
2017-11-30T15:55:10.140Z,16.17
2017-11-30T15:57:38.147Z,13.27
2017-11-30T16:00:06.951Z,16.20
2017-11-30T16:02:34.540Z,17.07
2017-11-30T16:05:02.929Z,13.03
2017-11-30T16:07:30.529Z,14.90
2017-11-30T16:09:58.209Z,15.50
2017-11-30T16:12:25.873Z,12.50
2017-11-30T16:14:53.501Z,16.70
2017-11-30T16:17:21.098Z,17.90
2017-11-30T16:19:48.696Z,14.53
2017-11-30T16:22:16.313Z,15.37
2017-11-30T16:24:43.944Z,16.37
2017-11-30T16:27:11.615Z,15.10
2017-11-30T16:29:39.386Z,15.47
2017-11-30T16:32:07.028Z,13.70
2017-11-30T16:34:34.636Z,13.60
2017-11-30T16:37:02.274Z,14.00
2017-11-30T16:39:29.865Z,13.77
2017-11-30T16:41:57.518Z,14.83
2017-11-30T16:44:25.126Z,16.87
2017-11-30T16:46:52.725Z,15.70
2017-11-30T16:49:20.380Z,13.90
2017-11-30T16:51:47.992Z,13.90
2017-11-30T16:54:15.611Z,14.20
2017-11-30T16:56:43.236Z,16.30
2017-11-30T16:59:10.868Z,14.67
2017-11-30T17:01:39.254Z,16.90
2017-11-30T17:04:07.133Z,16.40
2017-11-30T17:06:34.752Z,15.10
2017-11-30T17:09:02.346Z,14.90
2017-11-30T17:11:30.081Z,15.50
2017-11-30T17:13:58.187Z,14.67
2017-11-30T17:16:25.814Z,9.40
2017-11-30T17:18:53.445Z,16.30
2017-11-30T17:21:21.420Z,13.33
2017-11-30T17:23:49.401Z,14.20
2017-11-30T17:26:17.256Z,14.07
2017-11-30T17:28:47.470Z,17.07
2017-11-30T17:31:16.264Z,14.80
2017-11-30T17:33:44.132Z,14.47
2017-11-30T17:36:12.101Z,13.67
2017-11-30T17:38:39.969Z,13.63
2017-11-30T17:41:07.889Z,16.03
2017-11-30T17:43:35.697Z,19.57
2017-11-30T17:46:03.564Z,14.87
2017-11-30T17:48:31.397Z,17.03
2017-11-30T17:50:59.297Z,15.70
2017-11-30T17:53:27.174Z,14.20
2017-11-30T17:55:54.996Z,16.30
2017-11-30T17:58:22.856Z,17.10
2017-11-30T18:00:50.766Z,17.80
2017-11-30T18:03:18.638Z,17.20
2017-11-30T18:05:46.506Z,17.20
2017-11-30T18:08:14.335Z,15.40
2017-11-30T18:10:42.241Z,18.93
2017-11-30T18:13:10.061Z,17.53
2017-11-30T18:15:37.871Z,19.33
2017-11-30T18:18:05.742Z,17.37
2017-11-30T18:20:34.423Z,14.50
2017-11-30T18:23:02.249Z,16.60
2017-11-30T18:25:30.153Z,19.07
2017-11-30T18:27:58.079Z,19.87
2017-11-30T18:30:25.998Z,16.30
2017-11-30T18:32:55.390Z,14.00
2017-11-30T18:35:23.219Z,18.80
2017-11-30T18:37:51.129Z,17.30
2017-11-30T18:40:19.044Z,17.10
2017-11-30T18:42:46.670Z,14.63
2017-11-30T18:45:14.271Z,19.47
2017-11-30T18:47:41.906Z,14.70
2017-11-30T18:50:10.265Z,14.47
2017-11-30T18:52:37.899Z,19.10
2017-11-30T18:55:05.503Z,18.10
2017-11-30T18:57:33.189Z,16.60
2017-11-30T19:00:00.786Z,15.33
2017-11-30T19:02:28.384Z,15.80
2017-11-30T19:04:56.019Z,17.50
2017-11-30T19:07:23.635Z,18.10
2017-11-30T19:09:51.261Z,16.73
2017-11-30T19:12:19.110Z,16.23
2017-11-30T19:14:47.037Z,17.63
2017-11-30T19:17:14.940Z,15.53
2017-11-30T19:19:42.808Z,15.47
2017-11-30T19:22:10.679Z,17.57
2017-11-30T19:24:38.551Z,19.83
2017-11-30T19:27:06.511Z,14.70
2017-11-30T19:29:34.383Z,18.83
2017-11-30T19:32:02.246Z,18.80
2017-11-30T19:34:30.071Z,17.60
2017-11-30T19:36:57.993Z,17.17
2017-11-30T19:39:25.802Z,17.60
2017-11-30T19:41:53.716Z,17.70
2017-11-30T19:44:21.491Z,15.67
2017-11-30T19:46:49.349Z,16.97
2017-11-30T19:49:17.179Z,16.20
2017-11-30T19:51:45.082Z,16.63
2017-11-30T19:54:12.948Z,19.37
2017-11-30T19:56:40.710Z,16.63
2017-11-30T19:59:08.767Z,17.63
2017-11-30T20:01:37.369Z,15.50
2017-11-30T20:04:05.234Z,18.10
2017-11-30T20:06:33.009Z,16.87
2017-11-30T20:09:00.921Z,18.10
2017-11-30T20:11:28.826Z,16.23
2017-11-30T20:13:56.692Z,16.60
2017-11-30T20:16:24.569Z,17.30
2017-11-30T20:18:52.437Z,17.40
2017-11-30T20:21:20.401Z,15.63
2017-11-30T20:23:48.262Z,17.57
2017-11-30T20:26:16.128Z,18.20
2017-11-30T20:28:43.998Z,17.30
2017-11-30T20:31:11.629Z,18.07
2017-11-30T20:33:39.224Z,19.50
2017-11-30T20:36:06.857Z,17.23
2017-11-30T20:38:34.454Z,16.90
2017-11-30T20:41:02.072Z,17.43
2017-11-30T20:43:29.681Z,13.80
2017-11-30T20:45:58.050Z,18.73
2017-11-30T20:48:25.670Z,16.90
2017-11-30T20:50:53.269Z,15.80
2017-11-30T20:53:20.888Z,18.17
2017-11-30T20:55:48.483Z,18.90
2017-11-30T20:58:16.074Z,18.47
2017-11-30T21:00:44.463Z,16.20
2017-11-30T21:03:12.822Z,16.50
2017-11-30T21:05:41.022Z,15.90
2017-11-30T21:08:09.379Z,13.43
2017-11-30T21:10:37.026Z,18.07
2017-11-30T21:13:06.130Z,15.83
2017-11-30T21:15:34.716Z,17.13
2017-11-30T21:18:03.241Z,13.57
2017-11-30T21:20:30.842Z,17.00
2017-11-30T21:22:58.460Z,15.47
2017-11-30T21:25:26.062Z,16.03
2017-11-30T21:27:53.681Z,15.90
2017-11-30T21:30:21.334Z,17.50
2017-11-30T21:32:49.720Z,17.97
2017-11-30T21:35:17.324Z,17.20
2017-11-30T21:37:44.932Z,16.63
2017-11-30T21:40:12.974Z,17.07
2017-11-30T21:42:41.449Z,16.13
2017-11-30T21:45:09.837Z,16.70
2017-11-30T21:47:38.205Z,17.97
2017-11-30T21:50:06.154Z,18.40
2017-11-30T21:52:34.023Z,15.90
2017-11-30T21:55:02.711Z,17.47
2017-11-30T21:57:30.577Z,14.90
2017-11-30T21:59:58.443Z,13.10
2017-11-30T22:02:26.316Z,16.67
2017-11-30T22:04:54.071Z,17.40
2017-11-30T22:07:24.070Z,17.80
2017-11-30T22:09:53.928Z,16.37
2017-11-30T22:12:21.869Z,17.10
2017-11-30T22:14:49.679Z,16.50
2017-11-30T22:17:18.337Z,16.27
2017-11-30T22:19:46.198Z,16.97
2017-11-30T22:22:14.045Z,16.03
2017-11-30T22:24:41.936Z,17.10
2017-11-30T22:27:11.327Z,18.07
2017-11-30T22:29:39.192Z,18.33
2017-11-30T22:32:07.063Z,18.10
2017-11-30T22:34:35.036Z,16.17
2017-11-30T22:37:02.831Z,16.37
2017-11-30T22:39:31.475Z,17.43
2017-11-30T22:41:59.344Z,16.20
2017-11-30T22:44:27.220Z,18.50
2017-11-30T22:46:55.177Z,15.40
2017-11-30T22:49:23.053Z,15.10
2017-11-30T22:51:51.017Z,15.30
2017-11-30T22:54:18.881Z,16.10
2017-11-30T22:56:46.870Z,15.43
2017-11-30T22:59:14.724Z,15.27
2017-11-30T23:01:42.591Z,16.90
2017-11-30T23:04:10.448Z,16.30
2017-11-30T23:06:38.220Z,16.50
2017-11-30T23:09:05.848Z,19.03
2017-11-30T23:11:33.453Z,15.43
2017-11-30T23:14:01.044Z,16.20
2017-11-30T23:16:29.440Z,16.77
2017-11-30T23:18:57.042Z,17.20
2017-11-30T23:21:24.681Z,16.43
2017-11-30T23:23:52.350Z,16.80
2017-11-30T23:26:20.008Z,17.83
2017-11-30T23:28:47.605Z,16.37
2017-11-30T23:31:15.205Z,18.37
2017-11-30T23:33:42.848Z,18.40
2017-11-30T23:36:11.204Z,20.20
2017-11-30T23:38:38.839Z,16.57
2017-11-30T23:41:07.268Z,19.00
2017-11-30T23:43:34.921Z,16.60
2017-11-30T23:46:03.277Z,18.77
2017-11-30T23:48:31.661Z,16.43
2017-11-30T23:50:59.272Z,17.20
2017-11-30T23:53:26.887Z,18.80
2017-11-30T23:55:54.486Z,18.30
2017-11-30T23:58:22.105Z,16.73
